Дата Пункты Температура Давл., мм. Влажн., % Ветер Погодные явления
Воздуха Воды Направл. Скорость
26.06.18 09:00 Одесса 21.0 22.0 760 52 С-В 5 09 ЧАСОВ
26.06.18 06:00 Одесса 20.0 21.0 760 66 С-В 6 06 ЧАСОВ
26.06.18 03:00 Одесса 19.0 21.0 760 64 С-З 1 03 ЧАСА
25.06.18 09:00 Одесса 20.0 21.0 760 47 С 0 21 ЧАС
25.06.18 06:00 Одесса 24.0 20.0 760 36 Ю 1 18 ЧАСОВ
25.06.18 03:00 Одесса 24.0 20.0 761 39 Ю-В 2 15 ЧАСОВ
25.06.18 12:00 Одесса 24.0 20.0 761 39 Ю-В 3 12 ЧАСОВ
25.06.18 09:00 Одесса 21.0 20.0 761 50 В 3 09 ЧАСОВ
25.06.18 06:00 Одесса 16.0 21.0 760 71 С 0 06 ЧАСОВ
25.06.18 03:00 Одесса 16.0 21.0 760 70 С 1 03 ЧАСА
24.06.18 09:00 Одесса 20.0 21.0 759 42 С-З 1 21 ЧАС
24.06.18 06:00 Одесса 21.0 21.0 759 54 Ю 4 18 ЧАСОВ
24.06.18 03:00 Одесса 24.0 21.0 759 34 С-В 1 15 ЧАСОВ
24.06.18 12:00 Одесса 22.0 22.0 759 40 С 2 12 ЧАСОВ
24.06.18 09:00 Одесса 17.0 22.0 759 59 С-З 2 09 ЧАСОВ
24.06.18 06:00 Одесса 12.0 24.0 758 82 С-З 1 06 ЧАСОВ
24.06.18 03:00 Одесса 13.0 24.0 758 78 С-З 2 03 ЧАСА
23.06.18 09:00 Одесса 16.0 21.0 756 64 С-З 3 21 ЧАС
23.06.18 06:00 Одесса 19.0 23.0 755 62 С-З 3 18 ЧАСОВ
23.06.18 03:00 Одесса 21.0 23.0 754 63 С-З 2 15 ЧАСОВ
Количество строк
1 2 3 4 5 6 7 8 9 10
Page 8 of 382